Time;durP1;ratioP1;P1;durP2;ratioP2;P2;SDS_P1;SDS_P2;PMS_P1;PMS_P2;Temp;Humidity;BMP_temperature;BMP_pressure;BME280_temperature;BME280_humidity;BME280_pressure;Samples;Min_cycle;Max_cycle;Signal;HPM_P1;HPM_P2
2023/02/20 00:00:21;;;;;;;10.60;6.47;;;7.40;99.90;;;;;;4653709;30;20224;-78
2023/02/20 00:02:48;;;;;;;10.32;6.35;;;7.40;99.90;;;;;;4647529;30;20199;-80
2023/02/20 00:05:15;;;;;;;13.63;7.53;;;7.40;99.90;;;;;;4651060;30;20220;-74
2023/02/20 00:07:40;;;;;;;11.73;6.85;;;7.40;99.90;;;;;;4654978;30;20212;-76
2023/02/20 00:10:07;;;;;;;14.88;7.65;;;7.40;99.90;;;;;;4654914;30;20783;-79
2023/02/20 00:12:33;;;;;;;14.50;7.60;;;7.40;99.90;;;;;;4656366;30;20200;-79
2023/02/20 00:14:58;;;;;;;16.50;8.60;;;7.40;99.90;;;;;;4650105;30;20205;-76
2023/02/20 00:17:24;;;;;;;13.65;7.95;;;7.40;99.90;;;;;;4656149;30;20212;-75
2023/02/20 00:19:50;;;;;;;13.95;7.85;;;7.40;99.90;;;;;;4632525;30;20236;-76
2023/02/20 00:22:16;;;;;;;17.27;8.80;;;7.40;99.90;;;;;;4657419;30;20186;-77
2023/02/20 00:24:41;;;;;;;15.38;8.93;;;7.40;99.90;;;;;;4651116;30;20220;-75
2023/02/20 00:27:07;;;;;;;15.43;9.73;;;7.40;99.90;;;;;;4651125;30;20249;-78
2023/02/20 00:29:33;;;;;;;17.30;10.27;;;7.40;99.90;;;;;;4653927;30;20205;-77
2023/02/20 00:31:59;;;;;;;21.90;11.20;;;7.50;99.90;;;;;;4640554;30;20450;-76
2023/02/20 00:34:27;;;;;;;21.35;12.25;;;7.50;99.90;;;;;;4653649;30;20248;-79
2023/02/20 00:36:53;;;;;;;26.90;12.57;;;7.50;99.90;;;;;;4653291;30;20292;-78
2023/02/20 00:39:19;;;;;;;24.27;13.23;;;7.50;99.90;;;;;;4633659;30;21106;-77
2023/02/20 00:41:45;;;;;;;22.15;12.48;;;7.50;99.90;;;;;;4645506;30;20273;-79
2023/02/20 00:44:11;;;;;;;24.92;12.95;;;7.50;99.90;;;;;;4654317;30;20228;-75
2023/02/20 00:46:37;;;;;;;25.20;14.02;;;7.50;99.90;;;;;;4626155;30;20210;-76
2023/02/20 00:49:03;;;;;;;23.33;13.35;;;7.50;99.90;;;;;;4637146;30;20233;-76
2023/02/20 00:51:47;;;;;;;25.13;13.93;;;7.50;99.90;;;;;;4639653;30;20693;-77
2023/02/20 00:54:13;;;;;;;22.85;14.82;;;7.50;99.90;;;;;;4653636;30;20209;-75
2023/02/20 00:56:39;;;;;;;28.08;15.55;;;7.50;99.90;;;;;;4653678;30;20240;-78
2023/02/20 00:59:04;;;;;;;26.67;15.52;;;7.50;99.90;;;;;;4636601;30;20209;-76
2023/02/20 01:01:31;;;;;;;23.75;15.38;;;7.60;99.90;;;;;;4652357;30;20328;-76
2023/02/20 01:03:56;;;;;;;23.67;15.32;;;7.60;99.90;;;;;;4634135;30;20282;-79
2023/02/20 01:06:22;;;;;;;26.52;15.70;;;7.60;99.90;;;;;;4653264;30;20239;-76
2023/02/20 01:08:49;;;;;;;24.52;15.82;;;7.60;99.90;;;;;;4637314;30;20224;-79
2023/02/20 01:11:15;;;;;;;24.33;15.75;;;7.60;99.90;;;;;;4649005;30;20205;-77
2023/02/20 01:13:40;;;;;;;25.23;14.45;;;7.60;99.90;;;;;;4624616;30;20291;-79
2023/02/20 01:16:07;;;;;;;23.52;14.82;;;7.60;99.90;;;;;;4650548;30;20247;-78
2023/02/20 01:18:32;;;;;;;25.60;15.00;;;7.60;99.90;;;;;;4652705;30;20216;-78
2023/02/20 01:20:58;;;;;;;23.20;14.77;;;7.60;99.90;;;;;;4649953;30;20197;-76
2023/02/20 01:23:24;;;;;;;24.95;15.60;;;7.60;99.90;;;;;;4636120;30;20481;-78
2023/02/20 01:25:52;;;;;;;23.30;14.77;;;7.60;99.90;;;;;;4638284;30;20389;-81
2023/02/20 01:28:18;;;;;;;21.45;14.43;;;7.60;99.90;;;;;;4652793;30;21913;-78
2023/02/20 01:30:43;;;;;;;21.75;14.65;;;7.60;99.90;;;;;;4635410;30;20251;-80
2023/02/20 01:33:09;;;;;;;24.88;14.63;;;7.60;99.90;;;;;;4636149;30;20692;-76
2023/02/20 01:35:35;;;;;;;24.50;15.00;;;7.60;99.90;;;;;;4652138;30;20221;-76
2023/02/20 01:38:05;;;;;;;23.98;14.45;;;7.60;99.90;;;;;;4639988;30;20207;-76
2023/02/20 01:40:32;;;;;;;26.83;15.20;;;7.60;99.90;;;;;;4650747;30;20288;-76
2023/02/20 01:43:00;;;;;;;22.50;13.98;;;7.70;99.90;;;;;;4652184;30;20198;-80
2023/02/20 01:45:33;;;;;;;20.70;13.52;;;7.60;99.90;;;;;;4652481;30;20201;-75
2023/02/20 01:47:59;;;;;;;22.08;13.75;;;7.70;99.90;;;;;;4652682;30;20937;-77
2023/02/20 01:50:35;;;;;;;23.83;14.07;;;7.70;99.90;;;;;;4643628;30;20643;-78
2023/02/20 01:53:08;;;;;;;21.45;13.30;;;7.70;99.90;;;;;;4649868;30;20236;-79
2023/02/20 01:55:44;;;;;;;21.30;13.88;;;7.70;99.90;;;;;;4651991;30;20252;-74
2023/02/20 01:58:12;;;;;;;26.63;14.95;;;7.60;99.90;;;;;;4637007;30;20210;-75
2023/02/20 02:00:38;;;;;;;24.77;14.65;;;7.80;99.90;;;;;;4651845;30;20772;-76
2023/02/20 02:03:17;;;;;;;23.85;14.32;;;7.80;99.90;;;;;;4651576;30;20202;-77
2023/02/20 02:05:51;;;;;;;20.98;13.10;;;7.80;99.90;;;;;;4642270;30;20212;-79
2023/02/20 02:08:21;;;;;;;21.73;13.95;;;7.80;99.90;;;;;;4652869;30;20194;-75
2023/02/20 02:11:08;;;;;;;22.10;13.52;;;7.80;99.90;;;;;;4651622;30;20907;-76
2023/02/20 02:13:36;;;;;;;26.60;13.65;;;7.80;99.90;;;;;;4633794;30;20205;-74
2023/02/20 02:16:25;;;;;;;21.83;13.30;;;7.90;99.90;;;;;;4650179;30;20275;-75
2023/02/20 02:19:15;;;;;;;23.45;13.38;;;7.90;99.90;;;;;;4652703;30;20209;-77
2023/02/20 02:22:04;;;;;;;21.30;13.07;;;7.90;99.90;;;;;;4633396;30;20202;-76
2023/02/20 02:24:50;;;;;;;21.20;13.50;;;7.90;99.90;;;;;;4621530;30;20216;-79
2023/02/20 02:27:25;;;;;;;22.60;12.95;;;8.00;99.90;;;;;;4650640;30;20240;-76
2023/02/20 02:30:09;;;;;;;17.55;12.07;;;8.00;99.90;;;;;;4637491;30;20208;-75
2023/02/20 02:32:46;;;;;;;23.95;14.20;;;8.00;99.90;;;;;;4651876;30;20194;-76
2023/02/20 02:35:51;;;;;;;23.13;13.55;;;8.00;99.90;;;;;;4646842;30;20280;-78
2023/02/20 02:38:47;;;;;;;26.20;13.25;;;8.10;99.90;;;;;;4567462;31;20255;-75
2023/02/20 02:41:32;;;;;;;23.50;13.25;;;8.10;99.90;;;;;;4567877;31;20276;-79
2023/02/20 02:44:33;;;;;;;25.55;12.38;;;8.10;99.90;;;;;;4619089;30;20284;-78
2023/02/20 02:47:23;;;;;;;24.80;12.75;;;8.10;99.90;;;;;;4603823;30;20331;-79
2023/02/20 02:50:16;;;;;;;24.20;13.77;;;8.10;99.90;;;;;;4613661;30;20229;-76
2023/02/20 02:52:47;;;;;;;21.35;13.38;;;8.20;99.90;;;;;;4651147;30;20224;-77
2023/02/20 02:55:20;;;;;;;30.02;14.38;;;8.20;99.90;;;;;;4651305;30;20224;-78
2023/02/20 02:57:46;;;;;;;32.45;13.65;;;8.20;99.90;;;;;;4651217;30;20292;-80
2023/02/20 03:00:31;;;;;;;28.75;14.45;;;8.20;99.90;;;;;;4651311;30;20202;-80
2023/02/20 03:03:17;;;;;;;29.10;14.60;;;8.20;99.90;;;;;;4647401;30;20276;-76
2023/02/20 03:06:02;;;;;;;26.30;13.75;;;8.20;99.90;;;;;;4649326;30;20247;-79
2023/02/20 03:08:55;;;;;;;26.77;14.15;;;8.20;99.90;;;;;;4650708;30;20675;-78
2023/02/20 03:11:21;;;;;;;32.40;14.70;;;8.20;99.90;;;;;;4652150;30;20220;-76
2023/02/20 03:16:50;;;;;;;30.75;14.93;;;8.20;99.90;;;;;;4647140;30;20217;-78
2023/02/20 03:19:43;;;;;;;31.90;14.35;;;8.20;99.90;;;;;;4651829;30;20202;-79
2023/02/20 03:22:14;;;;;;;29.55;13.98;;;8.20;99.90;;;;;;4631136;30;20213;-77
2023/02/20 03:24:55;;;;;;;30.17;14.02;;;8.20;99.90;;;;;;4645536;30;20223;-75
2023/02/20 03:27:41;;;;;;;23.80;13.65;;;8.20;99.90;;;;;;4652772;30;20253;-76
2023/02/20 03:30:20;;;;;;;29.33;13.20;;;8.20;99.90;;;;;;4650618;30;20563;-76
2023/02/20 03:44:02;;;;;;;29.52;14.15;;;8.20;99.90;;;;;;4636733;30;20194;-80
2023/02/20 03:46:32;;;;;;;33.13;14.32;;;8.20;99.90;;;;;;4648254;30;20200;-75
2023/02/20 03:49:13;;;;;;;33.17;13.90;;;8.20;99.90;;;;;;4639702;30;20350;-77
2023/02/20 03:51:58;;;;;;;31.00;13.90;;;8.30;99.90;;;;;;4649405;30;20219;-78
2023/02/20 03:54:35;;;;;;;30.70;14.23;;;8.30;99.90;;;;;;4653813;30;20632;-77
2023/02/20 03:57:09;;;;;;;31.38;14.20;;;8.20;99.90;;;;;;4640401;30;20301;-75
2023/02/20 03:59:52;;;;;;;33.55;14.18;;;8.20;99.90;;;;;;4630904;30;20201;-77
2023/02/20 04:02:30;;;;;;;31.55;14.07;;;8.30;99.90;;;;;;4645778;30;20194;-78
2023/02/20 04:05:04;;;;;;;32.88;13.88;;;8.20;99.90;;;;;;4649168;30;20307;-81
2023/02/20 04:07:38;;;;;;;28.02;12.13;;;8.30;99.90;;;;;;4638926;30;22173;-75
2023/02/20 04:10:08;;;;;;;31.60;12.75;;;8.30;99.90;;;;;;4645001;30;20201;-78
2023/02/20 04:12:40;;;;;;;34.05;13.43;;;8.30;99.90;;;;;;4649239;30;20897;-76
2023/02/20 04:15:07;;;;;;;32.70;13.32;;;8.30;99.90;;;;;;4629218;30;20193;-78
2023/02/20 04:17:58;;;;;;;34.42;12.82;;;8.30;99.90;;;;;;4638561;30;20248;-80
2023/02/20 04:20:25;;;;;;;27.58;12.60;;;8.20;99.90;;;;;;4640868;30;20225;-74
2023/02/20 04:23:12;;;;;;;35.83;12.60;;;8.30;99.90;;;;;;4644134;30;20201;-75
2023/02/20 04:26:07;;;;;;;34.17;12.98;;;8.30;99.90;;;;;;4639939;30;20295;-74
2023/02/20 04:28:36;;;;;;;29.15;12.02;;;8.30;99.90;;;;;;4647089;30;20252;-76
2023/02/20 04:31:05;;;;;;;30.08;13.65;;;8.30;99.90;;;;;;4638110;30;20209;-77
2023/02/20 04:33:34;;;;;;;33.45;12.68;;;8.20;99.90;;;;;;4636300;30;20189;-74
2023/02/20 04:36:05;;;;;;;30.15;11.23;;;8.30;99.90;;;;;;4651769;30;20763;-76
2023/02/20 04:38:31;;;;;;;32.28;12.10;;;8.30;99.90;;;;;;4652056;30;20612;-75
2023/02/20 04:40:57;;;;;;;28.90;12.43;;;8.30;99.90;;;;;;4638208;30;20193;-76
2023/02/20 04:43:23;;;;;;;35.47;12.90;;;8.30;99.90;;;;;;4650440;30;20242;-76
2023/02/20 04:45:50;;;;;;;24.65;10.82;;;8.30;99.90;;;;;;4627169;30;20236;-76
2023/02/20 04:48:17;;;;;;;32.13;13.18;;;8.30;99.90;;;;;;4619562;30;20236;-76
2023/02/20 04:50:43;;;;;;;33.15;12.95;;;8.30;99.90;;;;;;4639299;30;20297;-75
2023/02/20 04:53:10;;;;;;;30.15;12.43;;;8.30;99.90;;;;;;4637403;30;20667;-77
2023/02/20 04:55:37;;;;;;;34.53;13.18;;;8.30;99.90;;;;;;4649682;30;20228;-76
2023/02/20 04:58:08;;;;;;;30.10;11.50;;;8.30;99.90;;;;;;4629996;30;20228;-80
2023/02/20 05:00:47;;;;;;;32.97;12.52;;;8.30;99.90;;;;;;4651296;30;20292;-77
2023/02/20 05:03:13;;;;;;;35.03;11.73;;;8.30;99.90;;;;;;4653065;30;20201;-80
2023/02/20 05:05:39;;;;;;;38.70;12.35;;;8.30;99.90;;;;;;4651675;30;20220;-76
2023/02/20 05:08:06;;;;;;;30.90;12.05;;;8.30;99.90;;;;;;4652842;30;20686;-79
2023/02/20 05:10:34;;;;;;;29.17;12.25;;;8.30;99.90;;;;;;4652742;30;20237;-76
2023/02/20 05:13:01;;;;;;;36.53;12.13;;;8.30;99.90;;;;;;4653341;30;20753;-79
2023/02/20 05:15:28;;;;;;;36.33;12.10;;;8.30;99.90;;;;;;4650575;30;20314;-79
2023/02/20 05:17:54;;;;;;;33.05;11.20;;;8.30;99.90;;;;;;4650327;30;20685;-81
2023/02/20 05:20:20;;;;;;;28.38;11.57;;;8.20;99.90;;;;;;4653516;30;20769;-78
2023/02/20 05:22:46;;;;;;;28.52;11.35;;;8.30;99.90;;;;;;4652424;30;20666;-75
2023/02/20 05:25:13;;;;;;;29.00;11.60;;;8.30;99.90;;;;;;4651020;30;20200;-76
2023/02/20 05:27:41;;;;;;;30.85;11.63;;;8.30;99.90;;;;;;4647743;30;21688;-78
2023/02/20 05:30:08;;;;;;;32.17;10.57;;;8.30;99.90;;;;;;4652493;30;20228;-79
2023/02/20 05:32:34;;;;;;;30.60;11.70;;;8.30;99.90;;;;;;4653189;30;20279;-78
2023/02/20 05:35:00;;;;;;;32.97;11.27;;;8.30;99.90;;;;;;4651721;30;20255;-76
2023/02/20 05:37:26;;;;;;;24.25;10.75;;;8.30;99.90;;;;;;4649983;30;20229;-76
2023/02/20 05:39:52;;;;;;;33.03;12.75;;;8.30;99.90;;;;;;4650865;30;20196;-78
2023/02/20 05:42:20;;;;;;;40.58;12.85;;;8.30;99.90;;;;;;4652546;30;20738;-76
2023/02/20 05:44:47;;;;;;;34.08;11.93;;;8.30;99.90;;;;;;4653591;30;20309;-78
2023/02/20 05:47:13;;;;;;;30.10;11.73;;;8.40;99.90;;;;;;4647971;30;20238;-76
2023/02/20 05:49:38;;;;;;;34.17;11.93;;;8.30;99.90;;;;;;4648039;30;20210;-75
2023/02/20 05:52:10;;;;;;;34.08;10.90;;;8.30;99.90;;;;;;4651694;30;20208;-76
2023/02/20 05:54:37;;;;;;;30.65;10.60;;;8.40;99.90;;;;;;4648483;30;20208;-80
2023/02/20 05:57:04;;;;;;;26.67;10.32;;;8.40;99.90;;;;;;4629490;30;20237;-77
2023/02/20 05:59:30;;;;;;;31.10;10.25;;;8.40;99.90;;;;;;4637567;30;20209;-77
2023/02/20 06:01:57;;;;;;;27.15;9.85;;;8.40;99.90;;;;;;4653396;30;20481;-77
2023/02/20 06:04:23;;;;;;;24.33;10.45;;;8.50;99.90;;;;;;4652230;30;20600;-79
2023/02/20 06:06:48;;;;;;;36.38;11.48;;;8.50;99.90;;;;;;4655045;30;20196;-75
2023/02/20 06:09:15;;;;;;;30.00;10.13;;;8.50;99.90;;;;;;4653393;30;20644;-77
2023/02/20 06:11:48;;;;;;;26.42;10.65;;;8.50;99.90;;;;;;4638492;30;20205;-77
2023/02/20 06:14:16;;;;;;;28.63;9.85;;;8.50;99.90;;;;;;4652131;30;20184;-76
2023/02/20 06:16:41;;;;;;;31.33;10.23;;;8.50;99.90;;;;;;4656507;30;20238;-75
2023/02/20 06:19:07;;;;;;;24.17;10.15;;;8.60;99.90;;;;;;4630292;30;20218;-75
2023/02/20 06:21:34;;;;;;;28.13;10.73;;;8.50;99.90;;;;;;4637972;30;20202;-76
2023/02/20 06:24:01;;;;;;;31.10;10.75;;;8.60;99.90;;;;;;4652276;30;20202;-74
2023/02/20 06:26:26;;;;;;;31.48;10.73;;;8.50;99.90;;;;;;4655388;30;20252;-76
2023/02/20 06:28:53;;;;;;;29.77;10.32;;;8.60;99.90;;;;;;4655718;30;20205;-76
2023/02/20 06:31:24;;;;;;;22.58;9.02;;;8.60;99.90;;;;;;4652335;30;20278;-77
2023/02/20 06:33:50;;;;;;;25.02;8.85;;;8.60;99.90;;;;;;4652097;30;20197;-78
2023/02/20 06:36:38;;;;;;;23.95;9.07;;;8.60;99.90;;;;;;4656037;30;20252;-75
2023/02/20 06:39:05;;;;;;;29.35;9.52;;;8.60;99.90;;;;;;4656806;30;20212;-79
2023/02/20 06:41:31;;;;;;;23.10;9.30;;;8.70;99.90;;;;;;4653099;30;20296;-77
2023/02/20 06:43:57;;;;;;;31.95;9.63;;;8.70;99.90;;;;;;4654123;30;20196;-79
2023/02/20 06:46:23;;;;;;;25.25;8.98;;;8.70;99.90;;;;;;4633968;30;20284;-74
2023/02/20 06:48:51;;;;;;;28.48;9.50;;;8.70;99.90;;;;;;4656601;30;20703;-80
2023/02/20 06:51:23;;;;;;;24.30;8.93;;;8.70;99.90;;;;;;4658282;30;22276;-78
2023/02/20 06:53:48;;;;;;;25.42;8.50;;;8.70;99.90;;;;;;4652887;30;20205;-76
2023/02/20 06:56:21;;;;;;;28.27;8.95;;;8.70;99.90;;;;;;4655362;30;20232;-75
2023/02/20 06:58:49;;;;;;;25.40;8.88;;;8.70;99.90;;;;;;4658353;30;20215;-75
2023/02/20 07:01:16;;;;;;;26.35;9.40;;;8.70;99.90;;;;;;4660777;30;20205;-77
2023/02/20 07:03:43;;;;;;;23.00;7.65;;;8.70;99.90;;;;;;4661224;30;20229;-78
2023/02/20 07:06:10;;;;;;;21.13;8.95;;;8.70;99.90;;;;;;4661073;30;20192;-78
2023/02/20 07:08:36;;;;;;;25.33;9.70;;;8.70;99.90;;;;;;4660421;30;20211;-79
2023/02/20 07:11:02;;;;;;;23.90;9.32;;;8.70;99.90;;;;;;4642342;30;20216;-75
2023/02/20 07:13:28;;;;;;;23.70;10.63;;;8.70;99.90;;;;;;4654479;30;20193;-78
2023/02/20 07:15:53;;;;;;;26.60;9.00;;;8.70;99.90;;;;;;4655798;30;20221;-75
2023/02/20 07:18:22;;;;;;;22.80;9.65;;;8.70;99.90;;;;;;4644407;30;20209;-79
2023/02/20 07:20:50;;;;;;;25.35;9.20;;;8.70;99.90;;;;;;4657046;30;20192;-77
2023/02/20 07:23:16;;;;;;;18.75;8.07;;;8.70;99.90;;;;;;4656899;30;20201;-77
2023/02/20 07:25:42;;;;;;;21.98;8.55;;;8.70;99.90;;;;;;4639361;30;20237;-74
2023/02/20 07:28:08;;;;;;;27.08;9.07;;;8.80;99.90;;;;;;4657246;30;20251;-77
2023/02/20 07:30:33;;;;;;;28.42;8.88;;;8.80;99.90;;;;;;4657745;30;20288;-75
2023/02/20 07:32:59;;;;;;;25.38;9.23;;;8.80;99.90;;;;;;4658329;30;20206;-79
2023/02/20 07:35:25;;;;;;;30.17;9.63;;;8.70;99.90;;;;;;4639648;30;20222;-79
2023/02/20 07:37:52;;;;;;;20.55;8.43;;;8.80;99.90;;;;;;4639263;30;20212;-75
2023/02/20 07:40:18;;;;;;;29.83;8.40;;;8.80;99.90;;;;;;4640631;30;20260;-79
2023/02/20 07:42:44;;;;;;;21.20;8.70;;;8.80;99.90;;;;;;4652777;30;20204;-80
2023/02/20 07:45:20;;;;;;;18.85;9.02;;;8.80;99.90;;;;;;4635107;30;20192;-75
2023/02/20 07:47:46;;;;;;;18.75;8.52;;;8.80;99.90;;;;;;4658382;30;20280;-77
2023/02/20 07:50:14;;;;;;;22.58;8.38;;;8.80;99.90;;;;;;4641117;30;20256;-73
2023/02/20 07:52:40;;;;;;;21.42;8.70;;;8.90;99.90;;;;;;4651727;30;20635;-75
2023/02/20 07:55:06;;;;;;;23.95;8.30;;;8.90;99.90;;;;;;4655642;30;20202;-76
2023/02/20 07:57:35;;;;;;;20.50;8.52;;;8.90;99.90;;;;;;4643848;30;20240;-77
2023/02/20 08:00:00;;;;;;;26.38;9.25;;;8.90;99.90;;;;;;4657321;30;20199;-76
2023/02/20 08:02:26;;;;;;;25.98;9.20;;;8.90;99.90;;;;;;4652569;30;20239;-77
2023/02/20 08:04:52;;;;;;;24.77;8.55;;;8.90;99.90;;;;;;4656326;30;20253;-76
2023/02/20 08:07:18;;;;;;;24.10;8.80;;;8.90;99.90;;;;;;4657773;30;20217;-73
2023/02/20 08:09:46;;;;;;;18.85;7.10;;;8.90;99.90;;;;;;4636232;30;20574;-79
2023/02/20 08:12:12;;;;;;;22.40;8.68;;;8.90;99.90;;;;;;4653747;30;20205;-74
2023/02/20 08:14:38;;;;;;;18.10;8.75;;;8.90;99.90;;;;;;4654010;30;20204;-73
2023/02/20 08:17:03;;;;;;;17.25;7.82;;;9.00;99.90;;;;;;4624127;30;20216;-76
2023/02/20 08:19:29;;;;;;;20.13;7.25;;;9.00;99.90;;;;;;4654590;30;20217;-78
2023/02/20 08:21:55;;;;;;;17.15;7.85;;;9.00;99.90;;;;;;4651939;30;20213;-74
2023/02/20 08:24:21;;;;;;;19.77;7.75;;;9.00;99.90;;;;;;4652275;30;20229;-74
2023/02/20 08:26:47;;;;;;;17.10;7.45;;;9.00;99.90;;;;;;4640655;30;20286;-73
2023/02/20 08:29:15;;;;;;;17.73;8.15;;;9.10;99.90;;;;;;4629997;30;20207;-76
2023/02/20 08:31:41;;;;;;;16.80;7.55;;;9.10;99.90;;;;;;4655240;30;20444;-75
2023/02/20 08:34:07;;;;;;;23.35;8.52;;;9.10;99.90;;;;;;4641373;30;20263;-74
2023/02/20 08:36:32;;;;;;;21.25;8.52;;;9.10;99.90;;;;;;4651757;30;20225;-74
2023/02/20 08:38:59;;;;;;;26.83;7.65;;;9.10;99.90;;;;;;4651673;30;20205;-74
2023/02/20 08:41:25;;;;;;;23.33;7.43;;;9.10;99.90;;;;;;4654755;30;20205;-76
2023/02/20 08:43:51;;;;;;;22.00;7.30;;;9.10;99.90;;;;;;4655174;30;20206;-79
2023/02/20 08:46:17;;;;;;;20.42;8.35;;;9.10;99.90;;;;;;4653712;30;20197;-77
2023/02/20 08:48:44;;;;;;;27.08;9.38;;;9.20;99.90;;;;;;4652118;30;20532;-75
2023/02/20 08:51:10;;;;;;;25.23;9.40;;;9.20;99.90;;;;;;4654051;30;21189;-75
2023/02/20 08:53:38;;;;;;;23.88;8.68;;;9.20;99.90;;;;;;4654868;30;20661;-79
2023/02/20 08:56:05;;;;;;;22.05;8.75;;;9.20;99.90;;;;;;4651656;30;20263;-82
2023/02/20 08:58:31;;;;;;;19.08;8.20;;;9.20;99.90;;;;;;4635790;30;20674;-76
2023/02/20 09:00:57;;;;;;;23.15;8.90;;;9.20;99.90;;;;;;4653368;30;20325;-76
2023/02/20 09:03:23;;;;;;;20.95;8.52;;;9.20;99.90;;;;;;4650966;30;20249;-79
2023/02/20 09:05:49;;;;;;;24.95;8.57;;;9.20;99.90;;;;;;4654655;30;20236;-75
2023/02/20 09:08:15;;;;;;;15.68;7.95;;;9.30;99.90;;;;;;4653619;30;20312;-81
2023/02/20 09:10:40;;;;;;;19.05;7.47;;;9.30;99.90;;;;;;4638894;30;20253;-77
2023/02/20 09:13:06;;;;;;;23.08;8.23;;;9.30;99.90;;;;;;4633500;30;20198;-76
2023/02/20 09:15:37;;;;;;;22.15;7.38;;;9.30;99.90;;;;;;4648883;30;20228;-75
2023/02/20 09:18:05;;;;;;;15.65;7.32;;;9.30;99.90;;;;;;4653054;30;20255;-76
2023/02/20 09:20:31;;;;;;;17.90;7.05;;;9.30;99.90;;;;;;4639365;30;20204;-80
2023/02/20 09:22:58;;;;;;;18.58;7.50;;;9.30;99.90;;;;;;4649153;30;21688;-75
2023/02/20 09:25:25;;;;;;;17.63;7.65;;;9.30;99.90;;;;;;4648391;30;22257;-77
2023/02/20 09:27:51;;;;;;;22.23;8.48;;;9.30;99.90;;;;;;4653415;30;20263;-76
2023/02/20 09:30:19;;;;;;;21.98;7.20;;;9.30;99.90;;;;;;4652563;30;20323;-78
2023/02/20 09:32:46;;;;;;;22.25;7.72;;;9.30;99.90;;;;;;4653088;30;20216;-75
2023/02/20 09:35:27;;;;;;;15.77;7.03;;;9.40;99.90;;;;;;4653803;30;20291;-79
2023/02/20 09:37:53;;;;;;;19.63;6.75;;;9.40;99.90;;;;;;4654040;30;20332;-78
2023/02/20 09:40:24;;;;;;;23.15;7.50;;;9.40;99.90;;;;;;4630752;30;20197;-75
2023/02/20 09:42:55;;;;;;;17.48;7.50;;;9.40;99.90;;;;;;4652094;30;20206;-74
2023/02/20 09:45:28;;;;;;;18.65;6.88;;;9.40;99.90;;;;;;4652863;30;20193;-80
2023/02/20 09:48:25;;;;;;;21.92;7.22;;;9.40;99.90;;;;;;4655201;30;20351;-80
2023/02/20 09:51:03;;;;;;;22.83;7.95;;;9.40;99.90;;;;;;4654468;30;20208;-80
2023/02/20 09:53:48;;;;;;;13.88;7.00;;;9.40;99.90;;;;;;4654622;30;20355;-76
2023/02/20 09:56:21;;;;;;;13.68;7.18;;;9.50;99.90;;;;;;4652182;30;20220;-75
2023/02/20 09:59:19;;;;;;;20.00;7.80;;;9.50;99.90;;;;;;4650020;30;20682;-81
2023/02/20 10:02:00;;;;;;;21.65;8.02;;;9.50;99.90;;;;;;4639323;30;20190;-77
2023/02/20 10:04:50;;;;;;;23.45;8.55;;;9.50;99.90;;;;;;4651600;30;20232;-77
2023/02/20 10:07:33;;;;;;;20.02;8.20;;;9.50;99.90;;;;;;4653232;30;20205;-76
2023/02/20 10:10:07;;;;;;;23.35;7.72;;;9.50;99.90;;;;;;4649601;30;20275;-75
2023/02/20 10:12:47;;;;;;;20.77;8.48;;;9.50;99.90;;;;;;4636155;30;20205;-79
2023/02/20 10:15:35;;;;;;;20.23;9.15;;;9.50;99.90;;;;;;4633395;30;20197;-75
2023/02/20 10:18:56;;;;;;;20.13;7.72;;;9.50;99.90;;;;;;4629287;30;21352;-79
2023/02/20 10:21:39;;;;;;;19.52;8.05;;;9.50;99.90;;;;;;4608513;30;20272;-76
2023/02/20 10:24:23;;;;;;;25.88;7.82;;;9.60;99.90;;;;;;4649428;30;20219;-78
2023/02/20 10:26:57;;;;;;;22.80;7.90;;;9.60;99.90;;;;;;4652468;30;20331;-75
2023/02/20 10:29:27;;;;;;;18.55;8.27;;;9.60;99.90;;;;;;4652358;30;20284;-77
2023/02/20 10:32:20;;;;;;;16.80;7.97;;;9.70;99.90;;;;;;4649198;30;20308;-82
2023/02/20 10:35:04;;;;;;;18.27;7.85;;;9.70;99.90;;;;;;4649772;30;20223;-75
2023/02/20 10:37:37;;;;;;;15.95;7.75;;;9.70;99.90;;;;;;4653016;30;20217;-78
2023/02/20 10:40:23;;;;;;;15.65;7.57;;;9.70;99.90;;;;;;4657187;30;20212;-75
2023/02/20 10:43:20;;;;;;;18.55;8.15;;;9.70;99.90;;;;;;4655793;30;20185;-75
2023/02/20 10:45:59;;;;;;;23.55;8.50;;;9.70;99.90;;;;;;4653637;30;20281;-75
2023/02/20 10:48:29;;;;;;;22.58;7.65;;;9.80;99.90;;;;;;4652318;30;20200;-76
2023/02/20 10:51:14;;;;;;;21.25;8.15;;;9.80;99.90;;;;;;4655371;30;20198;-75
2023/02/20 10:53:57;;;;;;;18.40;7.35;;;9.80;99.90;;;;;;4652583;30;20240;-76
2023/02/20 10:56:34;;;;;;;16.75;7.18;;;9.80;99.90;;;;;;4652147;30;20221;-77
2023/02/20 10:59:16;;;;;;;15.27;7.20;;;9.80;99.90;;;;;;4652721;30;20196;-77
2023/02/20 11:01:44;;;;;;;15.68;6.72;;;9.90;99.90;;;;;;4651125;30;20284;-79
2023/02/20 11:04:25;;;;;;;20.05;7.28;;;9.90;99.90;;;;;;4651472;30;20205;-76
2023/02/20 11:07:14;;;;;;;18.80;7.13;;;9.90;99.90;;;;;;4652063;30;20201;-73
2023/02/20 11:09:40;;;;;;;18.77;7.47;;;10.00;99.90;;;;;;4638084;30;20284;-77
2023/02/20 11:12:10;;;;;;;15.10;6.85;;;10.10;99.90;;;;;;4652003;30;20459;-78
2023/02/20 11:14:39;;;;;;;23.63;7.47;;;10.00;99.90;;;;;;4651638;30;20236;-75
2023/02/20 11:17:25;;;;;;;16.90;7.40;;;10.00;99.90;;;;;;4653032;30;22811;-78
2023/02/20 11:19:59;;;;;;;20.38;8.00;;;10.10;99.90;;;;;;4649171;30;20199;-78
2023/02/20 11:22:50;;;;;;;18.88;6.50;;;10.10;99.90;;;;;;4628717;30;21819;-77
2023/02/20 11:25:24;;;;;;;14.82;6.63;;;10.10;99.90;;;;;;4651790;30;20198;-78
2023/02/20 11:27:54;;;;;;;15.13;6.07;;;10.10;99.90;;;;;;4651214;30;20742;-75
2023/02/20 11:30:33;;;;;;;18.00;6.68;;;10.10;99.90;;;;;;4647913;30;20201;-76
2023/02/20 11:33:08;;;;;;;26.65;6.82;;;10.20;99.90;;;;;;4651748;30;20201;-80
2023/02/20 11:35:37;;;;;;;23.60;7.03;;;10.20;99.90;;;;;;4651547;30;20216;-75
2023/02/20 11:38:21;;;;;;;21.17;7.72;;;10.20;99.90;;;;;;4651811;30;20336;-78
2023/02/20 11:41:42;;;;;;;26.00;6.63;;;10.20;99.90;;;;;;4650762;30;20239;-74
2023/02/20 11:44:13;;;;;;;18.25;6.78;;;10.30;99.90;;;;;;4600419;31;20222;-77
2023/02/20 11:46:39;;;;;;;20.27;7.63;;;10.30;99.90;;;;;;4644386;30;20214;-76
2023/02/20 11:49:24;;;;;;;20.17;6.18;;;10.30;99.90;;;;;;4632761;30;20271;-74
2023/02/20 11:51:50;;;;;;;13.48;6.18;;;10.30;99.90;;;;;;4653019;30;20244;-75
2023/02/20 11:54:28;;;;;;;20.02;7.75;;;10.30;99.90;;;;;;4653985;30;20614;-78
2023/02/20 11:57:08;;;;;;;20.90;6.68;;;10.30;99.90;;;;;;4655462;30;20709;-78
2023/02/20 11:59:37;;;;;;;17.92;6.45;;;10.30;99.90;;;;;;4654591;30;20220;-74
2023/02/20 12:02:09;;;;;;;19.55;7.10;;;10.40;99.90;;;;;;4651035;30;21189;-75
2023/02/20 12:04:35;;;;;;;17.75;5.78;;;10.40;99.90;;;;;;4652167;30;20581;-80
2023/02/20 12:07:22;;;;;;;14.98;6.35;;;10.50;99.90;;;;;;4656143;30;20209;-75
2023/02/20 12:09:50;;;;;;;21.05;6.47;;;10.40;99.90;;;;;;4655738;30;20227;-75
2023/02/20 12:12:17;;;;;;;18.95;6.57;;;10.50;99.90;;;;;;4653965;30;20257;-78
2023/02/20 12:14:42;;;;;;;15.30;5.85;;;10.50;99.90;;;;;;4649472;30;20296;-74
2023/02/20 12:17:27;;;;;;;15.90;6.15;;;10.50;99.90;;;;;;4655597;30;20227;-76
2023/02/20 12:20:17;;;;;;;18.90;5.63;;;10.50;99.90;;;;;;4639709;30;20259;-80
2023/02/20 12:23:05;;;;;;;17.58;6.07;;;10.50;99.90;;;;;;4654570;30;20301;-77
2023/02/20 12:25:56;;;;;;;17.85;6.57;;;10.60;99.90;;;;;;4639918;30;20247;-76
2023/02/20 12:28:46;;;;;;;18.45;6.82;;;10.60;99.90;;;;;;4652269;30;20331;-78
2023/02/20 12:31:31;;;;;;;19.80;6.35;;;10.60;99.90;;;;;;4655052;30;20213;-77
2023/02/20 12:34:28;;;;;;;18.83;5.80;;;10.60;99.90;;;;;;4657370;30;20196;-76
2023/02/20 12:37:09;;;;;;;19.50;6.10;;;10.60;99.90;;;;;;4657755;30;20229;-78
2023/02/20 12:39:44;;;;;;;17.48;5.95;;;10.60;99.90;;;;;;4655573;30;22407;-77
2023/02/20 12:42:13;;;;;;;15.40;6.03;;;10.60;99.90;;;;;;4660440;30;20423;-75
2023/02/20 12:45:12;;;;;;;16.15;6.00;;;10.70;99.90;;;;;;4658325;30;20193;-77
2023/02/20 12:47:42;;;;;;;17.58;5.38;;;10.70;99.90;;;;;;4658458;30;20205;-75
2023/02/20 12:50:38;;;;;;;22.05;6.70;;;10.70;99.90;;;;;;4654718;30;20182;-78
2023/02/20 12:53:18;;;;;;;23.98;6.47;;;10.70;99.90;;;;;;4654073;30;20208;-76
2023/02/20 12:56:04;;;;;;;14.85;6.25;;;10.80;99.90;;;;;;4652720;30;21516;-76
2023/02/20 12:58:49;;;;;;;19.00;6.70;;;10.80;99.90;;;;;;4639555;30;20190;-75
2023/02/20 13:01:19;;;;;;;16.17;5.68;;;10.80;99.90;;;;;;4653222;30;20196;-75
2023/02/20 13:04:03;;;;;;;14.75;6.00;;;10.80;99.90;;;;;;4640138;30;20681;-79
2023/02/20 13:06:31;;;;;;;20.73;6.40;;;10.80;99.90;;;;;;4655236;30;20283;-77
2023/02/20 13:09:22;;;;;;;13.77;5.60;;;10.80;99.90;;;;;;4652292;30;20259;-80
2023/02/20 13:11:55;;;;;;;20.42;5.97;;;10.80;99.90;;;;;;4631450;30;20244;-78
2023/02/20 13:14:23;;;;;;;14.38;5.97;;;10.80;99.90;;;;;;4653088;30;20204;-81
2023/02/20 13:17:16;;;;;;;21.02;6.53;;;10.80;99.90;;;;;;4657376;30;20231;-76
2023/02/20 13:20:06;;;;;;;19.08;6.20;;;10.90;99.90;;;;;;4653187;30;20718;-79
2023/02/20 13:22:31;;;;;;;16.75;6.03;;;10.90;99.90;;;;;;4648450;30;20190;-78